Time;durP1;ratioP1;P1;durP2;ratioP2;P2;SDS_P1;SDS_P2;PMS_P1;PMS_P2;Temp;Humidity;BMP_temperature;BMP_pressure;BME280_temperature;BME280_humidity;BME280_pressure;Samples;Min_cycle;Max_cycle;Signal;HPM_P1;HPM_P2
2022/11/13 00:01:41;;;;;;;;;;;;;;;-146.58;100.00;69501.63;5069914;28;20298;-63
2022/11/13 00:04:06;;;;;;;;;;;;;;;-146.58;100.00;69501.63;5071449;28;19908;-63
2022/11/13 00:06:31;;;;;;;;;;;;;;;-146.58;100.00;69501.63;5069698;28;19920;-63
2022/11/13 00:08:56;;;;;;;;;;;;;;;-146.58;100.00;69501.63;5071165;28;20377;-63
2022/11/13 00:11:22;;;;;;;;;;;;;;;-146.58;100.00;69501.63;5069637;28;19909;-63
2022/11/13 00:13:47;;;;;;;;;;;;;;;-146.58;100.00;69501.63;5070372;28;19912;-63
2022/11/13 00:16:17;;;;;;;;;;;;;;;-146.58;100.00;69501.63;5069668;28;20444;-62
2022/11/13 00:18:42;;;;;;;;;;;;;;;-146.58;100.00;69501.63;5071069;28;19974;-63
2022/11/13 00:21:11;;;;;;;;;;;;;;;-146.58;100.00;69501.63;5069558;28;19913;-63
2022/11/13 00:23:36;;;;;;;;;;;;;;;-146.58;100.00;69501.63;5071056;28;19917;-63
2022/11/13 00:26:06;;;;;;;;;;;;;;;-146.58;100.00;69501.63;5070843;28;20003;-63
2022/11/13 00:28:31;;;;;;;;;;;;;;;-146.58;100.00;69501.63;5069469;28;19913;-63
2022/11/13 00:30:57;;;;;;;;;;;;;;;-146.58;100.00;69501.63;5071132;28;19966;-62
2022/11/13 00:33:22;;;;;;;;;;;;;;;-146.58;100.00;69501.63;5069621;28;20010;-62
2022/11/13 00:35:47;;;;;;;;;;;;;;;-146.58;100.00;69501.63;5070571;28;19962;-62
2022/11/13 00:38:12;;;;;;;;;;;;;;;-146.58;100.00;69501.63;5069725;28;19964;-62
2022/11/13 00:40:37;;;;;;;;;;;;;;;-146.58;100.00;69501.63;5070898;28;19908;-62
2022/11/13 00:43:03;;;;;;;;;;;;;;;-146.58;100.00;69501.63;5069102;28;19916;-62
2022/11/13 00:45:28;;;;;;;;;;;;;;;-146.58;100.00;69501.63;5070829;28;20144;-62
2022/11/13 00:47:53;;;;;;;;;;;;;;;-146.58;100.00;69501.63;5069403;28;20298;-62
2022/11/13 00:50:18;;;;;;;;;;;;;;;-146.58;100.00;69501.63;5070639;28;19959;-61
2022/11/13 00:52:43;;;;;;;;;;;;;;;-146.58;100.00;69501.63;5069147;28;19917;-61
2022/11/13 00:55:08;;;;;;;;;;;;;;;-146.58;100.00;69501.63;5070864;28;19917;-61
2022/11/13 00:57:34;;;;;;;;;;;;;;;-146.58;100.00;69501.63;5069424;28;20493;-62
2022/11/13 00:59:59;;;;;;;;;;;;;;;-146.58;100.00;69501.63;5070346;28;19916;-63
2022/11/13 01:02:24;;;;;;;;;;;;;;;-146.58;100.00;69501.63;5072335;28;19916;-62
2022/11/13 01:04:49;;;;;;;;;;;;;;;-146.58;100.00;69501.63;5074165;28;19908;-63
2022/11/13 01:07:14;;;;;;;;;;;;;;;-146.58;100.00;69501.63;5072697;28;19927;-63
2022/11/13 01:09:40;;;;;;;;;;;;;;;-146.58;100.00;69501.63;5074260;28;20436;-63
2022/11/13 01:12:05;;;;;;;;;;;;;;;-146.58;100.00;69501.63;5073104;28;20329;-63
2022/11/13 01:14:30;;;;;;;;;;;;;;;-146.58;100.00;69501.63;5074078;28;19952;-63
2022/11/13 01:16:55;;;;;;;;;;;;;;;-146.58;100.00;69501.63;5072444;28;19916;-63
2022/11/13 01:19:20;;;;;;;;;;;;;;;-146.58;100.00;69501.63;5074188;28;20338;-63
2022/11/13 01:21:45;;;;;;;;;;;;;;;-146.58;100.00;69501.63;5072367;28;19916;-62
2022/11/13 01:24:11;;;;;;;;;;;;;;;-146.58;100.00;69501.63;5074290;28;19948;-62
2022/11/13 01:26:36;;;;;;;;;;;;;;;-146.58;100.00;69501.63;5072845;28;19913;-62
2022/11/13 01:29:01;;;;;;;;;;;;;;;-146.58;100.00;69501.63;5073685;28;19959;-62
2022/11/13 01:31:28;;;;;;;;;;;;;;;-146.58;100.00;69501.63;5072633;28;19916;-62
2022/11/13 01:33:53;;;;;;;;;;;;;;;-146.58;100.00;69501.63;5073968;28;19921;-62
2022/11/13 01:36:19;;;;;;;;;;;;;;;-146.58;100.00;69501.63;5072460;28;19917;-62
2022/11/13 01:38:45;;;;;;;;;;;;;;;-146.58;100.00;69501.63;5073572;28;19908;-63
2022/11/13 01:41:14;;;;;;;;;;;;;;;-146.58;100.00;69501.63;5072505;28;20477;-62
2022/11/13 01:43:39;;;;;;;;;;;;;;;-146.58;100.00;69501.63;5073154;28;19916;-63
2022/11/13 01:46:07;;;;;;;;;;;;;;;-146.58;100.00;69501.63;5072335;28;19915;-62
2022/11/13 01:48:37;;;;;;;;;;;;;;;-146.58;100.00;69501.63;5074020;28;19962;-63
2022/11/13 01:51:07;;;;;;;;;;;;;;;-146.58;100.00;69501.63;5071679;28;19916;-62
2022/11/13 01:53:32;;;;;;;;;;;;;;;-146.58;100.00;69501.63;5073857;28;19919;-63
2022/11/13 01:55:58;;;;;;;;;;;;;;;-146.58;100.00;69501.63;5073726;28;19908;-63
2022/11/13 01:58:23;;;;;;;;;;;;;;;-146.58;100.00;69501.63;5071964;28;19935;-63
2022/11/13 02:00:48;;;;;;;;;;;;;;;-146.58;100.00;69501.63;5073421;28;20003;-62
2022/11/13 02:03:13;;;;;;;;;;;;;;;-146.58;100.00;69501.63;5071001;28;20309;-64
2022/11/13 02:05:38;;;;;;;;;;;;;;;-146.58;100.00;69501.63;5072628;28;19912;-64
2022/11/13 02:08:04;;;;;;;;;;;;;;;-146.58;100.00;69501.63;5071901;28;19924;-64
2022/11/13 02:10:29;;;;;;;;;;;;;;;-146.58;100.00;69501.63;5073524;28;19912;-64
2022/11/13 02:12:54;;;;;;;;;;;;;;;-146.58;100.00;69501.63;5071075;28;19939;-64
2022/11/13 02:15:22;;;;;;;;;;;;;;;-146.58;100.00;69501.63;5073229;28;19963;-63
2022/11/13 02:17:49;;;;;;;;;;;;;;;-146.58;100.00;69501.63;5071313;28;19998;-63
2022/11/13 02:20:15;;;;;;;;;;;;;;;-146.58;100.00;69501.63;5072837;28;19914;-63
2022/11/13 02:22:46;;;;;;;;;;;;;;;-146.58;100.00;69501.63;5071538;28;19916;-63
2022/11/13 02:25:12;;;;;;;;;;;;;;;-146.58;100.00;69501.63;5073079;28;19957;-63
2022/11/13 02:27:40;;;;;;;;;;;;;;;-146.58;100.00;69501.63;5071139;28;20318;-63
2022/11/13 02:30:24;;;;;;;;;;;;;;;-146.58;100.00;69501.63;5073174;28;20010;-63
2022/11/13 02:32:50;;;;;;;;;;;;;;;-146.58;100.00;69501.63;5071217;28;19982;-62
2022/11/13 02:35:20;;;;;;;;;;;;;;;-146.58;100.00;69501.63;5072843;28;19913;-62
2022/11/13 02:37:45;;;;;;;;;;;;;;;-146.58;100.00;69501.63;5070832;28;19947;-63
2022/11/13 02:40:11;;;;;;;;;;;;;;;-146.58;100.00;69501.63;5072886;28;19955;-62
2022/11/13 02:42:36;;;;;;;;;;;;;;;-146.58;100.00;69501.63;5070998;28;19918;-62
2022/11/13 02:45:02;;;;;;;;;;;;;;;-146.58;100.00;69501.63;5072612;28;19912;-62
2022/11/13 02:47:27;;;;;;;;;;;;;;;-146.58;100.00;69501.63;5071466;28;19994;-62
2022/11/13 02:49:52;;;;;;;;;;;;;;;-146.58;100.00;69501.63;5072013;28;19970;-62
2022/11/13 02:52:18;;;;;;;;;;;;;;;-146.58;100.00;69501.63;5071060;28;20493;-62
2022/11/13 02:54:43;;;;;;;;;;;;;;;-146.58;100.00;69501.63;5072180;28;19919;-62
2022/11/13 02:57:08;;;;;;;;;;;;;;;-146.58;100.00;69501.63;5070699;28;19932;-62
2022/11/13 02:59:33;;;;;;;;;;;;;;;-146.58;100.00;69501.63;5072464;28;19908;-62
2022/11/13 03:01:58;;;;;;;;;;;;;;;-146.58;100.00;69501.63;5070783;28;19923;-62
2022/11/13 03:04:24;;;;;;;;;;;;;;;-146.58;100.00;69501.63;5071738;28;19958;-62
2022/11/13 03:06:49;;;;;;;;;;;;;;;-146.58;100.00;69501.63;5070567;28;19955;-62
2022/11/13 03:09:14;;;;;;;;;;;;;;;-146.58;100.00;69501.63;5072319;28;19908;-63
2022/11/13 03:11:39;;;;;;;;;;;;;;;-146.58;100.00;69501.63;5070275;28;19912;-63
2022/11/13 03:14:04;;;;;;;;;;;;;;;-146.58;100.00;69501.63;5072245;28;20282;-62
2022/11/13 03:16:30;;;;;;;;;;;;;;;-146.58;100.00;69501.63;5070512;28;19916;-62
2022/11/13 03:18:55;;;;;;;;;;;;;;;-146.58;100.00;69501.63;5071381;28;19912;-62
2022/11/13 03:21:21;;;;;;;;;;;;;;;-146.58;100.00;69501.63;5070697;28;19924;-62
2022/11/13 03:23:46;;;;;;;;;;;;;;;-146.58;100.00;69501.63;5071039;28;20375;-62
2022/11/13 03:26:12;;;;;;;;;;;;;;;-146.58;100.00;69501.63;5070134;28;19957;-62
2022/11/13 03:28:37;;;;;;;;;;;;;;;-146.58;100.00;69501.63;5071520;28;20309;-62
2022/11/13 03:31:03;;;;;;;;;;;;;;;-146.58;100.00;69501.63;5070263;28;19912;-61
2022/11/13 03:33:29;;;;;;;;;;;;;;;-146.58;100.00;69501.63;5071440;28;19962;-63
2022/11/13 03:35:54;;;;;;;;;;;;;;;-146.58;100.00;69501.63;5071467;28;19958;-62
2022/11/13 03:38:19;;;;;;;;;;;;;;;-146.58;100.00;69501.63;5070186;28;19978;-61
2022/11/13 03:40:44;;;;;;;;;;;;;;;-146.58;100.00;69501.63;5071355;28;19915;-61
2022/11/13 03:43:09;;;;;;;;;;;;;;;-146.58;100.00;69501.63;5070403;28;19932;-61
2022/11/13 03:45:35;;;;;;;;;;;;;;;-146.58;100.00;69501.63;5071468;28;20290;-61
2022/11/13 03:48:00;;;;;;;;;;;;;;;-146.58;100.00;69501.63;5069851;28;19951;-61
2022/11/13 03:50:25;;;;;;;;;;;;;;;-146.58;100.00;69501.63;5071153;28;19909;-61
2022/11/13 03:52:51;;;;;;;;;;;;;;;-146.58;100.00;69501.63;5069953;28;19957;-61
2022/11/13 03:55:16;;;;;;;;;;;;;;;-146.58;100.00;69501.63;5071251;28;19908;-61
2022/11/13 03:57:41;;;;;;;;;;;;;;;-146.58;100.00;69501.63;5069535;28;19923;-61
2022/11/13 04:00:07;;;;;;;;;;;;;;;-146.58;100.00;69501.63;5071604;28;19967;-60
2022/11/13 04:02:32;;;;;;;;;;;;;;;-146.58;100.00;69501.63;5070113;28;19912;-60
2022/11/13 04:04:57;;;;;;;;;;;;;;;-146.58;100.00;69501.63;5070887;28;19908;-60
2022/11/13 04:07:22;;;;;;;;;;;;;;;-146.58;100.00;69501.63;5069897;28;19920;-60
2022/11/13 04:09:48;;;;;;;;;;;;;;;-146.58;100.00;69501.63;5071300;28;19959;-61
2022/11/13 04:12:13;;;;;;;;;;;;;;;-146.58;100.00;69501.63;5069747;28;19912;-60
2022/11/13 04:14:38;;;;;;;;;;;;;;;-146.58;100.00;69501.63;5070849;28;20425;-62
2022/11/13 04:17:03;;;;;;;;;;;;;;;-146.58;100.00;69501.63;5069527;28;19920;-62
2022/11/13 04:19:28;;;;;;;;;;;;;;;-146.58;100.00;69501.63;5071018;28;19943;-62
2022/11/13 04:21:53;;;;;;;;;;;;;;;-146.58;100.00;69501.63;5069956;28;20351;-62
2022/11/13 04:24:19;;;;;;;;;;;;;;;-146.58;100.00;69501.63;5071299;28;19916;-62
2022/11/13 04:26:44;;;;;;;;;;;;;;;-146.58;100.00;69501.63;5068946;28;19928;-62
2022/11/13 04:29:09;;;;;;;;;;;;;;;-146.58;100.00;69501.63;5071356;28;19915;-62
2022/11/13 04:31:34;;;;;;;;;;;;;;;-146.58;100.00;69501.63;5068762;28;19962;-62
2022/11/13 04:33:59;;;;;;;;;;;;;;;-146.58;100.00;69501.63;5070138;28;19916;-62
2022/11/13 04:36:25;;;;;;;;;;;;;;;-146.58;100.00;69501.63;5072749;28;19916;-62
2022/11/13 04:38:50;;;;;;;;;;;;;;;-146.58;100.00;69501.63;5075050;28;19909;-62
2022/11/13 04:43:59;;;;;;;;;;;;;;;-146.58;100.00;69501.63;5074600;28;19919;-62
2022/11/13 04:46:24;;;;;;;;;;;;;;;-146.58;100.00;69501.63;5073797;28;19916;-62
2022/11/13 04:48:49;;;;;;;;;;;;;;;-146.58;100.00;69501.63;5074256;28;19908;-62
2022/11/13 04:51:14;;;;;;;;;;;;;;;-146.58;100.00;69501.63;5073659;28;20382;-61
2022/11/13 04:53:40;;;;;;;;;;;;;;;-146.58;100.00;69501.63;5074429;28;19912;-62
2022/11/13 04:56:05;;;;;;;;;;;;;;;-146.58;100.00;69501.63;5072907;28;19954;-62
2022/11/13 04:58:30;;;;;;;;;;;;;;;-146.58;100.00;69501.63;5074643;28;20287;-62
2022/11/13 05:00:55;;;;;;;;;;;;;;;-146.58;100.00;69501.63;5074565;28;20363;-62
2022/11/13 05:03:20;;;;;;;;;;;;;;;-146.58;100.00;69501.63;5072861;28;19962;-62
2022/11/13 05:05:46;;;;;;;;;;;;;;;-146.58;100.00;69501.63;5074314;28;19944;-61
2022/11/13 05:08:11;;;;;;;;;;;;;;;-146.58;100.00;69501.63;5073162;28;20256;-62
2022/11/13 05:10:36;;;;;;;;;;;;;;;-146.58;100.00;69501.63;5074456;28;19915;-62
2022/11/13 05:13:02;;;;;;;;;;;;;;;-146.58;100.00;69501.63;5072506;28;20006;-63
2022/11/13 05:15:27;;;;;;;;;;;;;;;-146.58;100.00;69501.63;5074557;28;19915;-63
2022/11/13 05:17:53;;;;;;;;;;;;;;;-146.58;100.00;69501.63;5072339;28;20324;-63
2022/11/13 05:20:18;;;;;;;;;;;;;;;-146.58;100.00;69501.63;5074420;28;20358;-62
2022/11/13 05:22:43;;;;;;;;;;;;;;;-146.58;100.00;69501.63;5072182;28;19985;-62
2022/11/13 05:25:08;;;;;;;;;;;;;;;-146.58;100.00;69501.63;5074098;28;19912;-62
2022/11/13 05:27:34;;;;;;;;;;;;;;;-146.58;100.00;69501.63;5072945;28;20661;-62
2022/11/13 05:29:59;;;;;;;;;;;;;;;-146.58;100.00;69501.63;5074158;28;19912;-62
2022/11/13 05:32:24;;;;;;;;;;;;;;;-146.58;100.00;69501.63;5072327;28;19920;-62
2022/11/13 05:34:49;;;;;;;;;;;;;;;-146.58;100.00;69501.63;5073886;28;19912;-62
2022/11/13 05:37:14;;;;;;;;;;;;;;;-146.58;100.00;69501.63;5072268;28;19954;-62
2022/11/13 05:39:40;;;;;;;;;;;;;;;-146.58;100.00;69501.63;5073159;28;20006;-62
2022/11/13 05:42:05;;;;;;;;;;;;;;;-146.58;100.00;69501.63;5072409;28;19961;-62
2022/11/13 05:44:30;;;;;;;;;;;;;;;-146.58;100.00;69501.63;5073795;28;20306;-62
2022/11/13 05:46:55;;;;;;;;;;;;;;;-146.58;100.00;69501.63;5071455;28;19912;-62
2022/11/13 05:49:20;;;;;;;;;;;;;;;-146.58;100.00;69501.63;5073862;28;19996;-63
2022/11/13 05:51:46;;;;;;;;;;;;;;;-146.58;100.00;69501.63;5071874;28;19939;-63
2022/11/13 05:54:11;;;;;;;;;;;;;;;2.81;100.00;161304.91;5073320;28;19913;-63
2022/11/13 05:56:36;;;;;;;;;;;;;;;2.71;100.00;161278.09;5072276;28;19919;-63
2022/11/13 05:59:02;;;;;;;;;;;;;;;2.66;100.00;161264.63;5073659;28;19993;-63
2022/11/13 06:01:29;;;;;;;;;;;;;;;2.65;100.00;161263.31;5071838;28;19916;-63
2022/11/13 06:03:55;;;;;;;;;;;;;;;2.65;100.00;161261.94;5073482;28;20363;-63
2022/11/13 06:06:21;;;;;;;;;;;;;;;2.69;100.00;161272.72;5071892;28;19920;-63
2022/11/13 06:08:47;;;;;;;;;;;;;;;2.73;100.00;161283.44;5072936;28;19909;-63
2022/11/13 06:11:13;;;;;;;;;;;;;;;2.78;100.00;161296.88;5072224;28;19909;-62
2022/11/13 06:13:38;;;;;;;;;;;;;;;2.78;100.00;161296.88;5072960;28;20031;-63
2022/11/13 06:16:07;;;;;;;;;;;;;;;2.76;100.00;161291.50;5071695;28;20524;-60
2022/11/13 06:18:32;;;;;;;;;;;;;;;2.72;100.00;161280.75;5073079;28;19926;-60
2022/11/13 06:20:59;;;;;;;;;;;;;;;2.66;100.00;161264.63;5072622;28;20371;-60
2022/11/13 06:23:24;;;;;;;;;;;;;;;2.64;100.00;161259.31;5071541;28;19996;-60
2022/11/13 06:25:50;;;;;;;;;;;;;;;2.59;100.00;161245.84;5071733;28;20002;-60
2022/11/13 06:28:15;;;;;;;;;;;;;;;2.51;100.00;161227.03;5070116;28;20363;-60
2022/11/13 06:30:40;;;;;;;;;;;;;;;2.48;100.00;161217.66;5071751;28;19912;-60
2022/11/13 06:33:05;;;;;;;;;;;;;;;2.48;100.00;161217.66;5070891;28;19944;-59
2022/11/13 06:35:31;;;;;;;;;;;;;;;2.46;100.00;161213.63;5072921;28;19908;-59
2022/11/13 06:37:56;;;;;;;;;;;;;;;2.44;100.00;161208.25;5070635;28;19917;-59
2022/11/13 06:40:21;;;;;;;;;;;;;;;2.39;100.00;161194.84;5072465;28;19909;-59
2022/11/13 06:42:46;;;;;;;;;;;;;;;2.29;100.00;161167.97;5070771;28;19916;-59
2022/11/13 06:45:11;;;;;;;;;;;;;;;2.19;100.00;161143.84;5072195;28;20282;-60
2022/11/13 06:47:37;;;;;;;;;;;;;;;2.13;100.00;161127.72;5070633;28;19951;-60
2022/11/13 06:50:02;;;;;;;;;;;;;;;2.11;100.00;161121.00;5071527;28;20295;-59
2022/11/13 06:52:27;;;;;;;;;;;;;;;2.08;100.00;161114.31;5070204;28;19917;-59
2022/11/13 06:54:52;;;;;;;;;;;;;;;2.06;100.00;161110.28;5068389;28;20057;-59
2022/11/13 06:57:17;;;;;;;;;;;;;;;2.04;100.00;161104.91;5070237;28;20010;-60
2022/11/13 06:59:43;;;;;;;;;;;;;;;2.00;100.00;161094.19;5070576;28;19908;-60
2022/11/13 07:02:09;;;;;;;;;;;;;;;1.97;100.00;161086.13;5064210;28;19924;-60
2022/11/13 07:04:35;;;;;;;;;;;;;;;1.92;100.00;161071.34;5071235;28;20391;-60
2022/11/13 07:07:00;;;;;;;;;;;;;;;1.88;100.00;161063.31;5068904;28;19970;-59
2022/11/13 07:09:25;;;;;;;;;;;;;;;1.84;100.00;161052.56;5070188;28;20038;-60
2022/11/13 07:11:50;;;;;;;;;;;;;;;1.84;100.00;161052.56;5069099;28;19932;-59
2022/11/13 07:14:15;;;;;;;;;;;;;;;1.86;100.00;161056.63;5071289;28;19913;-59
2022/11/13 07:16:41;;;;;;;;;;;;;;;1.86;100.00;161057.94;5067676;28;19995;-59
2022/11/13 07:19:06;;;;;;;;;;;;;;;1.85;100.00;161053.94;5071310;28;20499;-60
2022/11/13 07:21:31;;;;;;;;;;;;;;;1.84;100.00;161051.25;5068606;28;19916;-59
2022/11/13 07:23:56;;;;;;;;;;;;;;;1.84;100.00;161052.56;5067113;28;20010;-60
2022/11/13 07:26:21;;;;;;;;;;;;;;;1.85;100.00;161055.25;5069223;28;19936;-59
2022/11/13 07:28:47;;;;;;;;;;;;;;;1.88;100.00;161063.31;5062179;28;19908;-59
2022/11/13 07:31:13;;;;;;;;;;;;;;;1.93;100.00;161074.03;5068009;28;20315;-59
2022/11/13 07:33:38;;;;;;;;;;;;;;;2.02;100.00;161098.19;5069766;28;19955;-60
2022/11/13 07:36:04;;;;;;;;;;;;;;;2.07;100.00;161111.59;5069407;28;19943;-59
2022/11/13 07:38:29;;;;;;;;;;;;;;;2.13;100.00;161127.72;5069258;28;20007;-60
2022/11/13 07:40:56;;;;;;;;;;;;;;;2.20;100.00;161146.50;5069506;28;19948;-60
2022/11/13 07:43:21;;;;;;;;;;;;;;;2.28;100.00;161165.28;5069135;28;20076;-60
2022/11/13 07:45:46;;;;;;;;;;;;;;;2.38;100.00;161192.16;5069570;28;19908;-60
2022/11/13 07:48:11;;;;;;;;;;;;;;;2.49;100.00;161011.88;5069826;28;19995;-60
2022/11/13 07:50:37;;;;;;;;;;;;;;;2.65;100.00;159354.31;5070359;28;19908;-60
2022/11/13 07:53:04;;;;;;;;;;;;;;;2.81;100.00;156609.69;5067400;28;19920;-60
2022/11/13 07:55:29;;;;;;;;;;;;;;;3.00;100.00;152637.41;5070679;28;19918;-60
2022/11/13 07:59:14;;;;;;;22.52;19.50;;;;;;;3.32;100.00;145750.53;5128851;27;20841;-58
2022/11/13 08:01:39;;;;;;;24.88;21.88;;;;;;;3.52;100.00;142317.03;5112868;27;20043;-58
2022/11/13 08:04:04;;;;;;;33.10;24.42;;;;;;;3.73;100.00;139235.22;5067817;28;20043;-58
2022/11/13 08:06:30;;;;;;;26.05;23.33;;;;;;;3.91;100.00;136841.94;5066063;28;20098;-57
2022/11/13 08:08:55;;;;;;;27.25;24.33;;;;;;;4.08;100.00;135490.00;5066111;28;20035;-60
2022/11/13 08:11:21;;;;;;;25.38;22.48;;;;;;;4.23;100.00;134826.16;5077607;28;20036;-60
2022/11/13 08:13:46;;;;;;;24.08;19.58;;;;;;;4.41;100.00;134517.50;5081534;28;20532;-60
2022/11/13 08:16:11;;;;;;;26.90;22.83;;;;;;;4.55;100.00;134547.50;5077543;28;20043;-60
2022/11/13 08:18:37;;;;;;;23.17;20.67;;;;;;;4.69;100.00;134577.53;5066940;28;20025;-60
2022/11/13 08:21:04;;;;;;;24.88;21.75;;;;;;;4.80;100.00;135296.66;5069788;28;20036;-58
2022/11/13 08:23:30;;;;;;;23.83;21.33;;;;;;;4.91;100.00;136713.41;5072804;28;20092;-60
2022/11/13 08:25:55;;;;;;;22.05;19.67;;;;;;;5.03;100.00;138830.13;5067694;28;20501;-61
2022/11/13 08:28:20;;;;;;;23.15;20.85;;;;;;;5.20;100.00;142352.81;5065911;28;20071;-61
2022/11/13 08:30:46;;;;;;;19.45;17.25;;;;;;;5.39;100.00;146585.97;5067172;28;20024;-59
2022/11/13 08:33:11;;;;;;;26.77;18.05;;;;;;;5.60;100.00;154326.88;5069112;28;20049;-58
2022/11/13 08:35:36;;;;;;;17.13;15.32;;;;;;;5.76;100.00;162071.13;5087162;28;20080;-58
2022/11/13 08:38:07;;;;;;;16.85;15.02;;;;;;;5.99;100.00;162133.09;5078055;28;20048;-59
2022/11/13 08:40:33;;;;;;;18.83;15.00;;;;;;;6.53;100.00;162273.03;5068224;28;20103;-58
2022/11/13 08:42:59;;;;;;;16.70;14.30;;;;;;;6.90;100.00;162368.66;5065244;28;20041;-58
2022/11/13 08:45:24;;;;;;;16.83;14.68;;;;;;;7.32;100.00;162477.75;5068827;28;20407;-58
2022/11/13 08:47:50;;;;;;;15.25;13.80;;;;;;;7.86;100.00;162620.50;5072752;28;20037;-59
2022/11/13 08:50:15;;;;;;;16.77;12.38;;;;;;;8.20;100.00;162709.47;5067645;28;20036;-58
2022/11/13 08:52:40;;;;;;;13.57;12.18;;;;;;;8.47;100.00;162778.28;5063919;28;20044;-58
2022/11/13 08:55:06;;;;;;;17.17;11.23;;;;;;;8.55;100.00;162801.16;5072939;28;20475;-59
2022/11/13 08:57:31;;;;;;;16.50;12.00;;;;;;;8.66;100.00;162828.16;5070372;28;20045;-58
2022/11/13 08:59:57;;;;;;;13.75;12.43;;;;;;;8.64;100.00;162822.75;5065215;28;20580;-59
2022/11/13 09:02:22;;;;;;;11.82;10.73;;;;;;;8.64;100.00;162822.75;5065787;28;20411;-58
2022/11/13 09:04:47;;;;;;;11.05;9.95;;;;;;;8.69;100.00;162836.22;5066389;28;20025;-59
2022/11/13 09:07:13;;;;;;;11.18;10.07;;;;;;;8.80;100.00;162865.91;5065897;28;20425;-58
2022/11/13 09:09:38;;;;;;;11.55;10.10;;;;;;;8.95;100.00;162904.97;5059369;28;20021;-59
2022/11/13 09:12:04;;;;;;;10.43;9.35;;;;;;;9.24;100.00;162979.16;5060401;28;20043;-58
2022/11/13 09:14:29;;;;;;;11.80;8.35;;;;;;;9.80;100.00;163127.50;5058029;28;20695;-59
2022/11/13 09:16:54;;;;;;;10.43;9.05;;;;;;;10.06;100.00;163195.00;5058193;28;20028;-59
2022/11/13 09:19:20;;;;;;;10.85;9.77;;;;;;;10.20;100.00;163231.41;5072577;28;20433;-59
2022/11/13 09:21:46;;;;;;;11.63;8.52;;;;;;;10.32;100.00;163263.81;5070099;28;20048;-59
2022/11/13 09:24:12;;;;;;;9.75;8.80;;;;;;;10.58;100.00;163330.00;5072843;28;20021;-59
2022/11/13 09:26:38;;;;;;;10.13;9.23;;;;;;;10.70;100.00;163361.06;5070060;28;20094;-59
2022/11/13 09:29:04;;;;;;;9.80;8.30;;;;;;;11.24;100.00;163502.81;5070341;28;20025;-59
2022/11/13 09:31:29;;;;;;;7.45;6.70;;;;;;;11.83;100.00;163656.75;5070622;28;20044;-59
2022/11/13 09:33:54;;;;;;;9.10;8.23;;;;;;;12.52;100.00;163839.22;5072315;28;20027;-59
2022/11/13 09:36:20;;;;;;;8.20;7.43;;;;;;;-146.58;100.00;69501.63;5069443;28;20044;-59
2022/11/13 09:38:45;;;;;;;7.70;6.97;;;;;;;12.52;100.00;163839.22;5070569;28;20029;-59
2022/11/13 09:41:17;;;;;;;7.70;6.88;;;;;;;-146.58;100.00;69501.63;5071040;28;20032;-60
2022/11/13 09:43:52;;;;;;;6.70;6.10;;;;;;;-146.58;100.00;69501.63;5071738;28;20024;-59
2022/11/13 09:46:42;;;;;;;7.28;6.57;;;;;;;-146.58;100.00;69501.63;5070279;28;20064;-59
2022/11/13 09:49:27;;;;;;;8.63;6.68;;;;;;;-146.58;100.00;69501.63;5071737;28;20024;-59
2022/11/13 09:51:55;;;;;;;7.13;5.68;;;;;;;-146.58;100.00;69501.63;5068807;28;20044;-59
2022/11/13 09:54:21;;;;;;;;;;;;;;;-146.58;100.00;69501.63;5072556;28;20025;-59
2022/11/13 09:56:58;;;;;;;6.80;6.03;;;;;;;-146.58;100.00;69501.63;5070667;28;19919;-58
2022/11/13 09:59:43;;;;;;;6.18;5.65;;;;;;;-146.58;100.00;69501.63;5061711;28;20037;-59
2022/11/13 10:02:24;;;;;;;6.05;5.43;;;;;;;-146.58;100.00;69501.63;5070491;28;20040;-59
2022/11/13 10:05:08;;;;;;;7.18;5.70;;;;;;;-146.58;100.00;69501.63;5071466;28;20095;-59
2022/11/13 10:07:51;;;;;;;5.40;4.90;;;;;;;-146.58;100.00;69501.63;5068757;28;20040;-59
2022/11/13 10:10:16;;;;;;;7.28;5.45;;;;;;;-146.58;100.00;69501.63;5069624;28;20025;-59
2022/11/13 10:12:45;;;;;;;5.85;5.28;;;;;;;-146.58;100.00;69501.63;5069021;28;20128;-59
2022/11/13 10:15:10;;;;;;;5.47;4.90;;;;;;;-146.58;100.00;69501.63;5063194;28;20033;-59
2022/11/13 10:17:47;;;;;;;6.70;5.47;;;;;;;-146.58;100.00;69501.63;5050346;28;20448;-59
2022/11/13 10:20:19;;;;;;;7.82;6.40;;;;;;;-146.58;100.00;69501.63;5051393;28;20044;-59
2022/11/13 10:22:58;;;;;;;6.25;5.60;;;;;;;-146.58;100.00;69501.63;5048739;28;20033;-60
2022/11/13 10:25:34;;;;;;;8.75;6.32;;;;;;;14.99;100.00;164484.44;5051975;28;20025;-59
2022/11/13 10:28:07;;;;;;;5.45;4.95;;;;;;;14.56;100.00;164373.38;5068414;28;20511;-59
2022/11/13 10:30:32;;;;;;;7.30;5.63;;;;;;;14.05;100.00;164238.09;5071253;28;20028;-59
2022/11/13 10:33:04;;;;;;;5.45;5.03;;;;;;;13.94;100.00;164211.09;5070053;28;20130;-59
2022/11/13 10:36:01;;;;;;;5.85;4.88;;;;;;;13.97;100.00;164217.84;5070624;28;20036;-59
2022/11/13 10:39:01;;;;;;;6.05;5.43;;;;;;;14.10;100.00;164251.66;5069496;28;20772;-59
2022/11/13 10:41:26;;;;;;;6.70;5.57;;;;;;;14.62;100.00;164386.94;5067741;28;20048;-59
2022/11/13 10:44:00;;;;;;;5.07;4.55;;;;;;;14.98;100.00;164481.72;5070162;28;20032;-59
2022/11/13 10:46:29;;;;;;;8.60;5.78;;;;;;;15.34;100.00;164576.47;5069875;28;20511;-59
2022/11/13 10:48:55;;;;;;;;;;;;;;;15.21;100.00;164544.00;5071558;28;20029;-59
2022/11/13 10:51:25;;;;;;;6.88;5.25;;;;;;;15.50;100.00;164619.78;5068180;28;19922;-59
2022/11/13 10:53:51;;;;;;;9.43;6.13;;;;;;;15.49;100.00;164617.06;5071000;28;20056;-59
2022/11/13 10:56:28;;;;;;;7.07;5.38;;;;;;;15.71;100.00;164673.94;5069281;28;20114;-59
2022/11/13 10:59:13;;;;;;;6.53;5.88;;;;;;;15.50;100.00;164619.78;5069364;28;20040;-59
2022/11/13 11:01:41;;;;;;;4.90;4.45;;;;;;;15.58;100.00;164638.75;5068829;28;20075;-59
2022/11/13 11:04:18;;;;;;;6.35;5.05;;;;;;;-146.58;100.00;69501.63;5070763;28;20028;-59
2022/11/13 11:06:44;;;;;;;6.28;5.03;;;;;;;15.09;100.00;164511.47;5066462;28;20040;-59
2022/11/13 11:09:24;;;;;;;9.35;5.80;;;;;;;14.98;100.00;164483.06;5069868;28;20030;-60
2022/11/13 11:12:20;;;;;;;7.68;6.72;;;;;;;14.98;100.00;164481.72;5068490;28;20064;-59
2022/11/13 11:14:45;;;;;;;6.68;5.68;;;;;;;15.03;100.00;164495.22;5070567;28;20379;-59
2022/11/13 11:17:13;;;;;;;5.13;4.63;;;;;;;14.94;100.00;164472.25;5059925;28;20123;-59
2022/11/13 11:19:42;;;;;;;10.73;6.70;;;;;;;15.04;100.00;164497.94;5070168;28;20032;-59
2022/11/13 11:22:21;;;;;;;5.25;4.85;;;;;;;15.09;100.00;164510.13;5069025;28;20045;-59
2022/11/13 11:25:00;;;;;;;5.82;5.30;;;;;;;15.08;100.00;164508.75;5070108;28;20024;-60
2022/11/13 11:27:41;;;;;;;5.28;4.78;;;;;;;15.02;100.00;164492.53;5068538;28;20082;-58
2022/11/13 11:30:19;;;;;;;6.80;5.00;;;;;;;15.26;100.00;164554.78;5070387;28;20036;-59
2022/11/13 11:33:11;;;;;;;6.15;5.20;;;;;;;15.39;100.00;164589.97;5068330;28;20080;-60
2022/11/13 11:35:42;;;;;;;8.43;4.78;;;;;;;15.46;100.00;164608.94;5056668;28;20028;-60
2022/11/13 11:38:15;;;;;;;6.30;4.03;;;;;;;15.04;100.00;164497.94;5068429;28;20040;-59
2022/11/13 11:40:43;;;;;;;5.82;5.10;;;;;;;15.15;100.00;164526.38;5069782;28;20073;-58
2022/11/13 11:43:27;;;;;;;;;;;;;;;15.29;100.00;164562.94;5069376;28;20090;-58
2022/11/13 11:45:53;;;;;;;5.55;5.05;;;;;;;15.35;100.00;164579.16;5070253;28;19908;-59
2022/11/13 11:48:22;;;;;;;5.78;5.28;;;;;;;15.13;100.00;164520.94;5066674;28;20040;-59
2022/11/13 11:51:03;;;;;;;10.15;5.55;;;;;;;15.25;100.00;164552.09;5050029;28;20025;-59
2022/11/13 11:53:47;;;;;;;7.63;4.85;;;;;;;15.26;100.00;164556.19;5049142;28;20048;-58
2022/11/13 11:56:33;;;;;;;5.57;5.07;;;;;;;15.60;100.00;164644.16;5049960;28;20017;-59
2022/11/13 11:59:31;;;;;;;5.90;5.35;;;;;;;15.82;100.00;164703.69;5051318;28;20047;-60
2022/11/13 12:02:52;;;;;;;6.72;4.40;;;;;;;15.81;100.00;164701.03;5059240;28;20043;-59
2022/11/13 12:05:28;;;;;;;5.13;4.63;;;;;;;16.06;100.00;164764.72;5046094;28;20044;-59